Time;durP1;ratioP1;P1;durP2;ratioP2;P2;SDS_P1;SDS_P2;PMS_P1;PMS_P2;Temp;Humidity;BMP_temperature;BMP_pressure;BME280_temperature;BME280_humidity;BME280_pressure;Samples;Min_cycle;Max_cycle;Signal;HPM_P1;HPM_P2
2021/05/05 00:01:22;;;;;;;2.27;1.97;;;;;;;7.14;77.23;99006.06;5001944;28;20045;-84
2021/05/05 00:03:48;;;;;;;2.90;2.10;;;;;;;7.13;76.68;98999.09;5018876;28;20044;-83
2021/05/05 00:06:16;;;;;;;2.90;2.20;;;;;;;7.15;77.42;98990.28;4998697;28;20050;-85
2021/05/05 00:08:42;;;;;;;4.03;2.20;;;;;;;7.07;78.21;99002.81;5014996;28;20091;-83
2021/05/05 00:11:08;;;;;;;3.47;2.10;;;;;;;7.07;78.55;98997.56;5017891;28;20099;-83
2021/05/05 00:13:34;;;;;;;2.43;1.93;;;;;;;6.99;78.73;98996.97;5017376;28;20646;-85
2021/05/05 00:16:01;;;;;;;2.20;2.00;;;;;;;7.01;79.46;98998.63;5014109;28;20046;-82
2021/05/05 00:18:27;;;;;;;3.07;2.10;;;;;;;6.99;80.28;98996.97;4990870;28;20042;-82
2021/05/05 00:20:54;;;;;;;4.03;2.20;;;;;;;6.99;79.85;98995.19;5016206;28;20049;-83
2021/05/05 00:23:20;;;;;;;2.17;1.90;;;;;;;7.07;79.06;98983.59;5013861;28;20120;-85
2021/05/05 00:25:46;;;;;;;3.23;2.20;;;;;;;7.14;78.60;98987.69;5016332;28;20041;-84
2021/05/05 00:28:12;;;;;;;3.30;2.10;;;;;;;7.21;77.73;98991.84;4999168;28;20402;-85
2021/05/05 00:30:38;;;;;;;2.77;2.20;;;;;;;7.11;78.96;98993.06;5001503;28;20098;-84
2021/05/05 00:33:05;;;;;;;3.03;2.10;;;;;;;7.11;79.02;98986.03;5018596;28;20044;-84
2021/05/05 00:35:31;;;;;;;4.53;2.27;;;;;;;7.04;79.15;98988.00;5018270;28;20041;-83
2021/05/05 00:38:02;;;;;;;3.10;2.13;;;;;;;7.03;79.76;98994.16;5004933;28;20049;-82
2021/05/05 00:40:28;;;;;;;4.10;2.40;;;;;;;7.08;79.32;98988.78;5017196;28;20037;-84
2021/05/05 00:42:54;;;;;;;4.63;2.03;;;;;;;7.02;79.32;98996.84;5017519;28;20048;-84
2021/05/05 00:45:20;;;;;;;4.60;2.00;;;;;;;7.07;79.05;98984.44;5017496;28;20037;-84
2021/05/05 00:47:47;;;;;;;4.27;2.17;;;;;;;7.07;78.07;98980.97;5000955;28;20045;-84
2021/05/05 00:50:16;;;;;;;2.47;1.90;;;;;;;7.05;78.69;98980.97;5015017;28;20049;-83
2021/05/05 00:52:42;;;;;;;2.40;1.90;;;;;;;7.04;79.04;98992.41;5012878;28;20046;-83
2021/05/05 00:55:09;;;;;;;3.33;1.87;;;;;;;7.03;78.69;98988.91;5014408;28;20570;-84
2021/05/05 00:57:36;;;;;;;3.73;2.00;;;;;;;7.13;77.94;98989.47;5016634;28;20045;-84
2021/05/05 01:00:07;;;;;;;2.73;2.10;;;;;;;7.07;78.92;98999.34;5016339;28;20052;-85
2021/05/05 01:02:33;;;;;;;4.00;2.63;;;;;;;7.09;78.96;98990.50;4997117;28;20037;-84
2021/05/05 01:05:00;;;;;;;3.40;1.87;;;;;;;7.07;78.57;98994.94;5013906;28;20052;-83
2021/05/05 01:07:27;;;;;;;2.80;2.10;;;;;;;7.03;78.48;98982.81;5016430;28;20037;-82
2021/05/05 01:09:54;;;;;;;3.73;2.00;;;;;;;7.06;79.30;98987.94;5000439;28;20453;-83
2021/05/05 01:12:20;;;;;;;3.23;2.40;;;;;;;7.06;78.57;98993.19;4996238;28;20132;-84
2021/05/05 01:14:46;;;;;;;2.50;1.87;;;;;;;7.11;78.03;98983.41;4999541;28;20041;-83
2021/05/05 01:17:13;;;;;;;2.33;1.80;;;;;;;7.15;77.89;98979.78;5011464;28;20052;-83
2021/05/05 01:19:41;;;;;;;4.20;2.03;;;;;;;7.12;78.61;98981.63;5029260;28;20037;-82
2021/05/05 01:22:07;;;;;;;5.43;2.47;;;;;;;7.29;78.00;98980.16;5005384;28;20045;-84
2021/05/05 01:24:34;;;;;;;3.90;1.97;;;;;;;7.37;77.63;98976.41;5040375;28;20036;-84
2021/05/05 01:27:04;;;;;;;5.20;2.23;;;;;;;7.33;77.28;98987.03;4999759;28;20032;-83
2021/05/05 01:29:30;;;;;;;3.97;1.73;;;;;;;7.33;78.55;98984.41;5016495;28;20041;-83
2021/05/05 01:31:57;;;;;;;4.37;2.60;;;;;;;7.38;77.56;98970.25;4995363;28;20083;-84
2021/05/05 01:34:23;;;;;;;3.73;1.93;;;;;;;7.40;78.17;98973.69;4994384;28;20033;-82
2021/05/05 01:36:49;;;;;;;2.80;1.80;;;;;;;7.38;77.61;98979.00;5016965;28;20041;-82
2021/05/05 01:39:17;;;;;;;3.03;1.93;;;;;;;7.38;78.46;98976.34;5012868;28;20042;-84
2021/05/05 01:41:44;;;;;;;3.17;2.27;;;;;;;7.34;78.78;98977.38;5016408;28;20041;-84
2021/05/05 01:44:11;;;;;;;3.63;2.03;;;;;;;7.45;76.76;98977.00;5012342;28;20159;-83
2021/05/05 01:46:47;;;;;;;3.90;2.23;;;;;;;7.52;77.03;98973.28;5008563;28;20095;-84
2021/05/05 01:49:18;;;;;;;3.93;2.03;;;;;;;7.56;75.72;98972.22;5004473;28;20483;-82
2021/05/05 01:51:44;;;;;;;11.60;2.40;;;;;;;7.50;76.62;98972.47;5032700;28;20048;-83
2021/05/05 01:54:11;;;;;;;3.80;2.30;;;;;;;7.57;75.42;98968.72;5032963;28;20401;-84
2021/05/05 01:56:37;;;;;;;4.93;2.07;;;;;;;7.47;76.39;98975.19;5000694;28;20037;-84
2021/05/05 01:59:03;;;;;;;3.13;1.97;;;;;;;7.46;77.66;98965.59;5015419;28;20047;-84
2021/05/05 02:01:29;;;;;;;5.30;2.20;;;;;;;7.55;75.51;98960.88;5014911;28;20054;-84
2021/05/05 02:04:00;;;;;;;2.00;1.70;;;;;;;7.54;76.32;98958.28;5007448;28;20168;-83
2021/05/05 02:06:28;;;;;;;2.90;2.43;;;;;;;7.54;75.78;98953.91;5032206;28;20488;-83
2021/05/05 02:08:55;;;;;;;3.03;2.00;;;;;;;7.54;76.33;98955.66;5008794;28;20056;-84
2021/05/05 02:11:21;;;;;;;3.50;1.83;;;;;;;7.42;75.90;98950.84;5015653;28;20045;-83
2021/05/05 02:13:48;;;;;;;3.27;2.00;;;;;;;7.45;75.53;98948.97;5034438;28;20048;-84
2021/05/05 02:16:14;;;;;;;3.10;1.83;;;;;;;7.51;75.80;98955.78;5014423;28;20041;-82
2021/05/05 02:18:40;;;;;;;2.93;1.70;;;;;;;7.52;76.03;98949.63;5038282;28;20103;-83
2021/05/05 02:21:06;;;;;;;2.37;2.00;;;;;;;7.54;75.22;98947.78;5015486;28;20059;-83
2021/05/05 02:23:33;;;;;;;3.77;1.93;;;;;;;7.51;76.55;98940.03;5001593;28;20071;-83
2021/05/05 02:26:00;;;;;;;4.13;2.30;;;;;;;7.53;75.68;98936.41;5016999;28;20040;-83
2021/05/05 02:28:26;;;;;;;4.30;2.10;;;;;;;7.51;75.71;98942.66;4998809;28;20051;-83
2021/05/05 02:30:52;;;;;;;3.83;1.67;;;;;;;7.49;75.95;98937.44;4998531;28;20098;-83
2021/05/05 02:33:18;;;;;;;2.40;1.93;;;;;;;7.52;75.51;98944.34;5031305;28;20090;-82
2021/05/05 02:35:44;;;;;;;2.37;2.17;;;;;;;7.52;75.49;98941.72;4998945;28;20052;-82
2021/05/05 02:38:11;;;;;;;4.27;1.97;;;;;;;7.56;74.74;98935.44;5014588;28;20041;-83
2021/05/05 02:40:37;;;;;;;6.57;2.43;;;;;;;7.48;75.08;98926.97;5004393;28;20559;-81
2021/05/05 02:43:03;;;;;;;2.72;1.98;;;;;;;7.48;76.25;98927.84;5015079;28;20041;-83
2021/05/05 02:45:30;;;;;;;4.30;2.10;;;;;;;7.53;75.47;98919.78;4998905;28;20095;-83
2021/05/05 02:47:56;;;;;;;3.20;2.40;;;;;;;7.51;75.20;98914.59;4998579;28;20132;-83
2021/05/05 02:50:23;;;;;;;3.00;2.00;;;;;;;7.55;75.67;98918.81;5012495;28;20094;-84
2021/05/05 02:52:49;;;;;;;4.50;2.77;;;;;;;7.51;75.21;98917.22;5016243;28;20386;-84
2021/05/05 02:55:15;;;;;;;2.27;1.93;;;;;;;7.50;75.19;98906.78;4997499;28;20037;-84
2021/05/05 02:57:41;;;;;;;3.13;1.97;;;;;;;7.52;74.40;98915.47;5015596;28;20045;-83
2021/05/05 03:00:09;;;;;;;2.67;2.00;;;;;;;7.55;73.34;98913.56;5003388;28;20040;-82
2021/05/05 03:02:35;;;;;;;2.23;1.80;;;;;;;7.57;73.75;98908.28;5013606;28;20053;-84
2021/05/05 03:05:04;;;;;;;3.20;2.13;;;;;;;7.57;74.49;98909.13;5011522;28;20103;-83
2021/05/05 03:07:30;;;;;;;2.43;1.87;;;;;;;7.52;74.25;98903.19;4994818;28;20045;-84
2021/05/05 03:09:57;;;;;;;4.37;2.00;;;;;;;7.56;73.85;98903.91;5015229;28;20045;-83
2021/05/05 03:12:23;;;;;;;2.33;1.80;;;;;;;7.49;73.95;98908.56;5032366;28;20479;-83
2021/05/05 03:14:49;;;;;;;2.83;2.00;;;;;;;7.51;73.32;98900.59;4992796;28;20049;-83
2021/05/05 03:17:15;;;;;;;2.17;1.83;;;;;;;7.51;74.41;98898.84;5029854;28;20148;-83
2021/05/05 03:19:43;;;;;;;4.47;1.90;;;;;;;7.53;73.79;98894.38;4997721;28;20037;-83
2021/05/05 03:22:09;;;;;;;2.00;1.80;;;;;;;7.56;73.75;98896.03;5029615;28;20095;-83
2021/05/05 03:24:35;;;;;;;2.60;1.90;;;;;;;7.51;73.84;98896.22;5014617;28;20064;-84
2021/05/05 03:27:01;;;;;;;4.10;2.07;;;;;;;7.47;74.17;98901.63;5014923;28;20049;-83
2021/05/05 03:29:27;;;;;;;2.87;2.00;;;;;;;7.56;74.19;98890.75;5029265;28;20501;-84
2021/05/05 03:31:53;;;;;;;3.53;1.70;;;;;;;7.57;73.01;98892.50;5022834;28;20111;-84
2021/05/05 03:34:19;;;;;;;4.63;2.73;;;;;;;7.62;72.62;98896.66;5002437;28;20091;-82
2021/05/05 03:36:46;;;;;;;2.90;1.90;;;;;;;7.55;73.48;98891.69;5033700;28;20087;-82
2021/05/05 03:39:12;;;;;;;5.35;2.00;;;;;;;7.61;70.95;98887.06;5017340;28;20045;-83
2021/05/05 03:41:38;;;;;;;2.87;1.70;;;;;;;7.56;72.01;98903.91;5001079;28;20410;-83
2021/05/05 03:44:05;;;;;;;3.43;1.80;;;;;;;7.58;72.82;98896.84;5018056;28;20091;-83
2021/05/05 03:46:32;;;;;;;4.38;1.83;;;;;;;7.60;72.13;98906.38;5001637;28;20489;-83
2021/05/05 03:48:58;;;;;;;3.17;1.77;;;;;;;7.59;71.70;98896.78;5017948;28;20033;-85
2021/05/05 03:51:25;;;;;;;5.68;2.45;;;;;;;7.63;72.32;98892.25;5012378;28;20603;-82
2021/05/05 03:53:51;;;;;;;7.00;1.90;;;;;;;7.66;71.99;98901.81;5017968;28;20397;-82
2021/05/05 03:56:17;;;;;;;5.80;2.22;;;;;;;7.64;71.65;98891.34;5017803;28;20367;-84
2021/05/05 03:58:43;;;;;;;2.70;1.80;;;;;;;7.64;71.17;98893.97;5038781;28;20037;-82
2021/05/05 04:01:09;;;;;;;3.63;2.10;;;;;;;7.65;70.12;98900.09;5018033;28;20061;-83
2021/05/05 04:03:35;;;;;;;2.97;1.97;;;;;;;7.65;70.54;98893.09;5027630;28;20037;-83
2021/05/05 04:06:02;;;;;;;2.17;1.87;;;;;;;7.61;70.29;98894.94;5033470;28;20153;-85
2021/05/05 04:08:28;;;;;;;2.03;1.80;;;;;;;7.60;69.60;98900.28;5001124;28;20055;-83
2021/05/05 04:10:54;;;;;;;2.70;2.17;;;;;;;7.63;70.66;98895.75;4996151;28;20042;-85
2021/05/05 04:13:20;;;;;;;2.35;1.65;;;;;;;7.58;69.37;98905.59;5017654;28;20044;-83
2021/05/05 04:16:04;;;;;;;;;;;;;;;7.56;70.35;98906.53;5019544;28;20068;-84
2021/05/05 04:18:49;;;;;;;1.80;1.70;;;;;;;7.52;70.00;98904.94;4998433;28;19913;-83
2021/05/05 04:21:33;;;;;;;2.80;1.75;;;;;;;7.55;70.80;98889.91;5003487;28;20529;-83
2021/05/05 04:24:17;;;;;;;;;;;;;;;7.59;70.02;98903.81;5031282;28;20394;-84
2021/05/05 04:26:45;;;;;;;3.23;1.83;;;;;;;7.62;70.70;98901.06;4999977;28;19951;-82
2021/05/05 04:29:12;;;;;;;2.50;1.77;;;;;;;7.59;70.24;98904.66;5010148;28;20065;-83
2021/05/05 04:31:38;;;;;;;2.93;1.80;;;;;;;7.64;69.22;98904.47;5015308;28;20053;-84
2021/05/05 04:34:08;;;;;;;3.10;1.53;;;;;;;7.62;69.02;98903.69;5034051;28;20383;-85
2021/05/05 04:36:34;;;;;;;2.33;1.77;;;;;;;7.70;70.19;98911.28;5015798;28;20036;-86
2021/05/05 04:39:03;;;;;;;2.30;1.73;;;;;;;7.68;68.60;98898.22;5016857;28;20064;-84
2021/05/05 04:41:29;;;;;;;2.30;1.83;;;;;;;7.69;68.01;98918.31;5000496;28;20045;-85
2021/05/05 04:43:55;;;;;;;4.22;1.88;;;;;;;7.73;69.17;98917.28;5000517;28;20041;-85
2021/05/05 04:46:21;;;;;;;2.97;1.70;;;;;;;7.74;69.10;98920.81;5018791;28;20075;-84
2021/05/05 04:48:47;;;;;;;3.17;1.87;;;;;;;7.74;69.47;98923.44;5013265;28;20048;-84
2021/05/05 04:51:14;;;;;;;2.67;1.40;;;;;;;7.72;68.50;98920.84;5011588;28;20044;-85
2021/05/05 04:53:40;;;;;;;1.80;1.50;;;;;;;7.68;68.39;98928.91;5028581;28;20095;-81
2021/05/05 04:56:07;;;;;;;3.25;1.50;;;;;;;7.64;69.37;98920.25;5093229;23;20049;-82
2021/05/05 04:58:33;;;;;;;2.57;1.63;;;;;;;7.69;70.34;98922.72;5004067;28;20056;-81
2021/05/05 05:01:01;;;;;;;2.83;1.70;;;;;;;7.73;69.12;98921.69;4998055;28;20042;-80
2021/05/05 05:03:27;;;;;;;19.13;11.43;;;;;;;7.77;69.00;98923.31;5033554;28;20041;-81
2021/05/05 05:05:53;;;;;;;15.57;11.10;;;;;;;7.82;68.67;98921.38;5027979;28;20092;-80
2021/05/05 05:08:20;;;;;;;2.97;2.20;;;;;;;7.77;69.06;98916.28;5016957;28;20163;-79
2021/05/05 05:10:46;;;;;;;3.03;2.20;;;;;;;7.74;70.28;98913.78;5003802;28;20623;-80
2021/05/05 05:13:12;;;;;;;2.07;1.73;;;;;;;7.79;69.02;98922.31;5020123;28;20099;-78
2021/05/05 05:15:38;;;;;;;5.97;2.60;;;;;;;7.76;69.66;98938.22;5034680;28;20076;-81
2021/05/05 05:18:04;;;;;;;2.22;1.48;;;;;;;7.78;69.92;98925.88;5002370;28;20038;-81
2021/05/05 05:20:31;;;;;;;2.72;1.85;;;;;;;7.75;69.53;98930.41;5004704;28;20057;-79
2021/05/05 05:22:57;;;;;;;2.57;1.70;;;;;;;7.78;70.46;98932.91;5031424;28;20623;-80
2021/05/05 05:25:27;;;;;;;2.53;1.80;;;;;;;7.74;69.17;98931.31;5021291;28;20049;-80
2021/05/05 05:27:54;;;;;;;2.23;1.60;;;;;;;7.74;68.76;98932.16;4988654;28;20172;-82
2021/05/05 05:30:21;;;;;;;2.53;1.77;;;;;;;7.72;70.00;98930.50;5014441;28;20041;-81
2021/05/05 05:32:47;;;;;;;3.15;1.60;;;;;;;7.75;69.47;98935.66;5006426;28;20655;-80
2021/05/05 05:35:14;;;;;;;3.47;2.27;;;;;;;7.76;69.09;98940.84;5001409;28;20702;-80
2021/05/05 05:37:40;;;;;;;2.00;1.60;;;;;;;7.77;68.95;98946.97;5016699;28;20049;-80
2021/05/05 05:40:08;;;;;;;2.15;1.80;;;;;;;7.78;69.29;98946.06;5003307;28;20073;-80
2021/05/05 05:42:34;;;;;;;3.83;1.80;;;;;;;7.77;67.93;98936.44;5011867;28;20258;-81
2021/05/05 05:45:00;;;;;;;2.53;2.10;;;;;;;7.92;70.38;98938.53;4982880;28;20080;-80
2021/05/05 05:47:27;;;;;;;3.00;2.00;;;;;;;8.23;68.61;98937.34;5018988;28;20148;-81
2021/05/05 05:49:53;;;;;;;3.23;1.80;;;;;;;8.34;67.11;98936.03;4992497;28;20054;-81
2021/05/05 05:52:19;;;;;;;2.27;1.53;;;;;;;8.45;67.60;98938.28;5000340;28;20049;-79
2021/05/05 05:54:45;;;;;;;3.40;2.20;;;;;;;8.58;66.57;98944.78;5016527;28;20034;-81
2021/05/05 05:57:12;;;;;;;3.40;1.77;;;;;;;8.78;67.61;98935.22;4999559;28;20048;-81
2021/05/05 05:59:38;;;;;;;2.35;1.80;;;;;;;8.81;66.01;98940.34;5035555;28;20038;-80
2021/05/05 06:02:04;;;;;;;3.20;1.80;;;;;;;8.85;66.04;98952.47;5033308;28;20050;-81
2021/05/05 06:04:31;;;;;;;3.38;1.70;;;;;;;8.78;66.57;98948.38;5034423;28;20037;-80
2021/05/05 06:06:57;;;;;;;2.53;1.83;;;;;;;8.69;66.54;98950.47;5035680;28;20045;-82
2021/05/05 06:09:24;;;;;;;2.90;1.83;;;;;;;8.57;66.59;98950.06;4991682;28;20045;-81
2021/05/05 06:11:50;;;;;;;3.78;1.92;;;;;;;8.71;67.15;98953.03;4997641;28;20103;-80
2021/05/05 06:14:17;;;;;;;2.63;2.33;;;;;;;9.33;66.01;98944.28;5020598;28;20045;-81
2021/05/05 06:16:43;;;;;;;2.65;2.10;;;;;;;9.32;64.67;98940.78;5004356;28;20037;-81
2021/05/05 06:19:10;;;;;;;2.80;2.47;;;;;;;8.92;65.43;98957.44;5015226;28;20382;-79
2021/05/05 06:21:36;;;;;;;6.32;1.70;;;;;;;8.83;64.85;98957.81;5018187;28;20046;-81
2021/05/05 06:24:03;;;;;;;2.33;1.80;;;;;;;8.85;65.59;98953.34;5004181;28;20116;-81
2021/05/05 06:26:29;;;;;;;3.58;2.33;;;;;;;8.83;65.58;98959.56;5010772;28;20466;-81
2021/05/05 06:28:58;;;;;;;2.55;1.73;;;;;;;8.76;66.41;98963.38;5008471;28;20042;-81
2021/05/05 06:31:24;;;;;;;5.60;2.80;;;;;;;8.60;66.80;98957.88;5002004;28;20064;-80
2021/05/05 06:33:50;;;;;;;4.03;2.58;;;;;;;8.56;67.51;98977.31;5002387;28;20049;-81
2021/05/05 06:36:17;;;;;;;3.78;2.55;;;;;;;8.43;67.61;98972.53;5015058;28;20545;-82
2021/05/05 06:38:43;;;;;;;3.78;2.40;;;;;;;8.33;69.45;98973.78;5006567;28;20049;-82
2021/05/05 06:41:09;;;;;;;3.50;2.17;;;;;;;8.20;68.87;98972.53;5027365;28;20048;-82
2021/05/05 06:43:36;;;;;;;3.03;1.90;;;;;;;8.28;68.97;98972.25;5023265;28;20292;-81
2021/05/05 06:46:03;;;;;;;5.28;3.10;;;;;;;8.30;69.21;98979.16;5009046;28;20076;-81
2021/05/05 06:48:29;;;;;;;3.45;2.80;;;;;;;8.37;67.74;98962.25;5009527;28;20414;-80
2021/05/05 06:50:55;;;;;;;3.10;2.75;;;;;;;8.51;67.84;98968.75;5000698;28;20045;-81
2021/05/05 06:53:22;;;;;;;3.95;2.25;;;;;;;8.68;67.89;98977.72;5002943;28;20136;-80
2021/05/05 06:55:48;;;;;;;4.75;2.78;;;;;;;9.01;67.43;98964.97;5017258;28;20053;-80
2021/05/05 06:58:14;;;;;;;5.25;3.17;;;;;;;9.30;67.68;98962.88;4987820;28;20045;-82
2021/05/05 07:00:40;;;;;;;6.28;2.47;;;;;;;9.50;64.65;98965.53;5011649;28;20041;-83
2021/05/05 07:03:07;;;;;;;2.88;2.40;;;;;;;9.45;65.62;98967.50;5017645;28;20042;-81
2021/05/05 07:05:33;;;;;;;3.90;3.10;;;;;;;9.56;65.63;98964.38;5013173;28;20042;-82
2021/05/05 07:08:00;;;;;;;3.97;2.75;;;;;;;9.93;64.92;98971.56;5004762;28;20049;-82
2021/05/05 07:10:26;;;;;;;3.35;2.10;;;;;;;9.93;64.93;98966.28;5001590;28;20732;-81
2021/05/05 07:12:52;;;;;;;3.63;2.33;;;;;;;9.91;64.22;98973.38;4999531;28;20045;-81
2021/05/05 07:15:18;;;;;;;4.72;2.35;;;;;;;9.67;62.79;98977.09;5019556;28;20065;-80
2021/05/05 07:17:45;;;;;;;4.10;2.80;;;;;;;9.62;64.18;98992.28;5012044;28;20037;-83
2021/05/05 07:20:12;;;;;;;5.05;3.25;;;;;;;9.67;64.47;98977.09;5020223;28;20053;-80
2021/05/05 07:22:41;;;;;;;5.15;3.40;;;;;;;9.80;63.56;98987.06;5016058;28;20041;-81
2021/05/05 07:25:07;;;;;;;3.13;2.30;;;;;;;9.73;63.34;98977.69;5021102;28;20041;-82
2021/05/05 07:27:33;;;;;;;3.13;2.10;;;;;;;9.83;64.38;98971.09;5023471;28;20391;-82
2021/05/05 07:29:59;;;;;;;5.25;2.28;;;;;;;10.04;62.75;98974.56;5028386;28;20045;-82
2021/05/05 07:32:26;;;;;;;3.88;2.47;;;;;;;9.98;62.46;98977.47;5002606;28;20108;-82
2021/05/05 07:34:53;;;;;;;3.80;2.30;;;;;;;9.68;63.66;98969.16;5014715;28;20097;-81
2021/05/05 07:38:17;;;;;;;2.45;2.17;;;;;;;9.56;63.95;98977.56;4997723;28;20041;-81
2021/05/05 07:40:51;;;;;;;3.50;2.30;;;;;;;9.37;64.34;98987.19;4999734;28;20042;-81
2021/05/05 07:48:05;;;;;;;3.67;2.80;;;;;;;8.36;79.03;99014.94;5015507;28;20084;-81
2021/05/05 07:50:32;;;;;;;3.40;2.75;;;;;;;8.08;81.23;99010.69;5021758;28;20052;-81
2021/05/05 07:52:58;;;;;;;3.92;2.80;;;;;;;8.00;81.69;99020.63;5019826;28;20073;-83
2021/05/05 07:55:24;;;;;;;4.88;4.38;;;;;;;8.02;81.23;99017.94;5002999;28;20025;-81
2021/05/05 07:57:49;;;;;;;3.47;2.85;;;;;;;8.22;82.36;99012.78;5016928;28;20553;-81
2021/05/05 08:00:16;;;;;;;3.65;2.40;;;;;;;8.50;77.64;99014.44;5002179;28;20148;-81
2021/05/05 08:02:55;;;;;;;5.80;3.05;;;;;;;8.76;81.85;98998.47;5013447;28;20262;-82
2021/05/05 08:05:51;;;;;;;3.38;2.47;;;;;;;8.96;76.30;99003.78;5017859;28;20060;-82
2021/05/05 08:09:22;;;;;;;2.92;2.50;;;;;;;9.28;76.51;98994.56;5042488;28;20091;-81
2021/05/05 08:13:05;;;;;;;3.85;2.88;;;;;;;9.84;75.65;98988.66;4987656;28;20385;-81
2021/05/05 08:16:00;;;;;;;7.07;6.35;;;;;;;9.85;68.80;98989.50;4944710;29;20043;-82
2021/05/05 08:19:02;;;;;;;4.13;2.50;;;;;;;9.93;69.68;98981.25;4973686;28;20138;-81
2021/05/05 08:26:49;;;;;;;3.08;2.13;;;;;;;10.09;67.85;98990.19;4987310;28;20664;-82
2021/05/05 08:29:43;;;;;;;5.18;2.65;;;;;;;10.66;65.43;98978.72;4981825;28;20041;-82
2021/05/05 08:32:09;;;;;;;8.85;7.13;;;;;;;10.53;62.53;98972.34;5027064;28;20091;-82
2021/05/05 08:34:36;;;;;;;5.00;3.38;;;;;;;10.50;61.89;98974.25;5030408;28;20045;-81
2021/05/05 08:37:02;;;;;;;3.22;2.53;;;;;;;10.32;61.20;98970.69;5014652;28;20069;-80
2021/05/05 08:39:29;;;;;;;3.25;2.67;;;;;;;10.16;60.79;98974.00;4996358;28;20045;-81
2021/05/05 08:41:57;;;;;;;2.90;2.60;;;;;;;9.99;60.97;98981.81;5029712;28;20046;-81
2021/05/05 08:44:24;;;;;;;4.50;3.40;;;;;;;9.93;62.40;99000.56;5031197;28;20064;-81
2021/05/05 08:46:50;;;;;;;3.67;2.25;;;;;;;9.59;66.92;99009.94;5026000;28;20102;-81
2021/05/05 08:49:17;;;;;;;5.50;3.72;;;;;;;9.11;71.01;99015.50;5044910;28;20041;-81
2021/05/05 08:51:44;;;;;;;6.38;4.00;;;;;;;9.02;72.99;99035.16;5024292;28;20314;-81
2021/05/05 08:54:11;;;;;;;4.85;4.25;;;;;;;8.83;71.66;99017.50;5013088;28;20052;-81
2021/05/05 08:56:37;;;;;;;5.32;3.38;;;;;;;8.71;73.02;99019.69;5035615;28;20076;-81
2021/05/05 08:59:08;;;;;;;4.38;2.63;;;;;;;9.24;73.46;99016.69;5022107;28;20041;-81
2021/05/05 09:01:35;;;;;;;6.40;4.13;;;;;;;9.36;71.37;99023.25;5011396;28;20045;-80
2021/05/05 09:04:02;;;;;;;6.35;2.85;;;;;;;9.78;72.13;99019.69;5032559;28;20064;-80
2021/05/05 09:06:47;;;;;;;4.60;3.00;;;;;;;10.19;65.95;98994.13;5023557;28;20045;-81
2021/05/05 09:09:32;;;;;;;5.28;3.13;;;;;;;10.55;62.97;98991.59;5014056;28;20057;-81
2021/05/05 09:12:01;;;;;;;1.95;1.60;;;;;;;10.63;63.27;98996.53;5029294;28;20060;-81
2021/05/05 09:14:28;;;;;;;5.63;2.70;;;;;;;10.55;61.51;98996.03;5033614;28;20042;-81
2021/05/05 09:16:54;;;;;;;4.88;2.50;;;;;;;10.25;62.69;99048.44;5012007;28;20054;-81
2021/05/05 09:19:22;;;;;;;6.60;2.80;;;;;;;9.03;71.52;99104.50;5020995;28;20100;-83
2021/05/05 09:21:51;;;;;;;3.45;1.70;;;;;;;8.26;77.57;99098.59;5002100;28;20050;-84
2021/05/05 09:24:31;;;;;;;2.10;1.35;;;;;;;7.74;77.39;99091.66;5035444;28;20033;-84
2021/05/05 09:27:02;;;;;;;2.83;1.65;;;;;;;7.45;81.67;99106.63;5008723;28;20077;-86
2021/05/05 09:29:38;;;;;;;4.07;2.20;;;;;;;7.30;86.10;99121.09;4999296;28;20038;-84
2021/05/05 09:32:05;;;;;;;3.43;1.83;;;;;;;7.25;85.57;99094.13;4997387;28;20744;-86
2021/05/05 09:34:31;;;;;;;3.30;2.17;;;;;;;7.21;89.02;99086.38;5014693;28;20038;-85
2021/05/05 09:37:05;;;;;;;5.43;3.03;;;;;;;7.58;88.92;99065.91;5020057;28;20053;-83
2021/05/05 09:39:34;;;;;;;4.82;3.25;;;;;;;8.31;97.19;99062.44;4983759;28;20045;-84
2021/05/05 09:42:01;;;;;;;4.17;3.30;;;;;;;8.83;95.38;99068.41;5014560;28;20135;-84
2021/05/05 09:44:28;;;;;;;3.30;2.08;;;;;;;9.17;86.02;99057.41;5017909;28;20030;-83
2021/05/05 09:46:58;;;;;;;4.10;2.90;;;;;;;9.58;86.28;99060.97;5034407;28;20045;-83
2021/05/05 09:49:33;;;;;;;5.28;4.05;;;;;;;9.81;87.47;99045.94;5024355;28;20069;-83
2021/05/05 09:52:12;;;;;;;;;;;;;;;9.81;79.52;99052.06;5034726;28;20049;-86
2021/05/05 09:54:41;;;;;;;3.60;2.25;;;;;;;10.09;80.22;99054.38;5020391;28;19921;-83
2021/05/05 09:57:19;;;;;;;3.03;1.92;;;;;;;10.05;81.18;99050.16;5019282;28;20414;-84
2021/05/05 10:00:16;;;;;;;2.50;1.98;;;;;;;10.17;77.59;99040.81;5021608;28;20045;-83
2021/05/05 10:02:49;;;;;;;2.78;1.90;;;;;;;10.32;76.35;99045.44;5018909;28;20049;-84
2021/05/05 10:05:24;;;;;;;9.55;5.70;;;;;;;10.28;70.37;99022.78;4990390;28;20045;-83
2021/05/05 10:07:54;;;;;;;3.28;2.17;;;;;;;10.40;68.88;99034.53;5022480;28;20049;-82
2021/05/05 10:10:27;;;;;;;2.40;2.00;;;;;;;10.38;68.54;99039.91;5015627;28;20058;-83
2021/05/05 10:12:55;;;;;;;2.33;2.13;;;;;;;10.18;66.10;99039.06;5014782;28;20072;-83
2021/05/05 10:15:22;;;;;;;4.20;2.17;;;;;;;10.00;68.73;99044.19;5015316;28;20045;-83
2021/05/05 10:17:50;;;;;;;2.00;1.80;;;;;;;10.11;69.87;99039.31;5011850;28;20056;-81
2021/05/05 10:20:21;;;;;;;3.42;1.60;;;;;;;10.11;68.32;99043.75;5017652;28;20045;-83
2021/05/05 10:22:50;;;;;;;2.63;1.65;;;;;;;10.09;67.33;99035.91;5013919;28;20080;-81
2021/05/05 10:25:17;;;;;;;3.20;1.92;;;;;;;10.00;66.18;99035.44;4982771;28;20581;-83
2021/05/05 10:27:44;;;;;;;4.53;1.60;;;;;;;10.05;66.10;99038.75;5030891;28;20595;-80
2021/05/05 10:30:13;;;;;;;3.25;1.40;;;;;;;10.08;65.79;99023.63;5011788;28;20042;-82
2021/05/05 10:32:45;;;;;;;3.97;1.40;;;;;;;10.18;66.26;99025.88;4994472;28;20064;-81
2021/05/05 10:35:16;;;;;;;2.78;1.63;;;;;;;9.98;64.72;99027.59;5014967;28;20041;-82
2021/05/05 10:37:47;;;;;;;3.60;2.08;;;;;;;10.05;63.61;99028.19;5000356;28;20047;-81
2021/05/05 10:40:15;;;;;;;2.47;1.70;;;;;;;10.16;63.71;99028.56;4996817;28;20088;-82
2021/05/05 10:42:49;;;;;;;3.05;2.10;;;;;;;10.23;60.96;99022.09;5015010;28;20095;-84
2021/05/05 10:45:39;;;;;;;2.97;1.83;;;;;;;10.26;60.72;99032.56;4998935;28;20045;-82
2021/05/05 10:48:13;;;;;;;2.10;1.60;;;;;;;10.66;60.29;99028.91;4982677;28;20433;-83
2021/05/05 10:50:50;;;;;;;2.83;1.90;;;;;;;10.69;60.12;99031.44;5015380;28;20044;-81
2021/05/05 10:53:20;;;;;;;2.50;1.98;;;;;;;10.69;59.06;99030.56;4991021;28;20100;-81
2021/05/05 10:55:55;;;;;;;4.72;1.98;;;;;;;10.55;62.47;99014.50;4996218;28;20048;-82
2021/05/05 10:58:27;;;;;;;4.10;1.83;;;;;;;11.04;68.10;99023.59;5060841;23;20120;-86
2021/05/05 11:00:59;;;;;;;4.72;2.30;;;;;;;11.55;58.40;99029.88;5012783;28;20042;-84
2021/05/05 11:03:42;;;;;;;2.58;2.20;;;;;;;11.57;58.52;99034.16;5028752;28;20048;-87
2021/05/05 11:06:31;;;;;;;3.95;2.10;;;;;;;11.92;59.57;99035.97;5045457;28;20044;-86
2021/05/05 11:09:17;;;;;;;3.42;1.90;;;;;;;12.24;57.91;99027.19;5059186;28;20401;-86
2021/05/05 11:11:45;;;;;;;3.22;1.92;;;;;;;12.62;56.16;99024.28;5046206;28;20041;-85
2021/05/05 11:14:23;;;;;;;2.42;1.73;;;;;;;12.96;55.53;99032.06;5067881;28;20048;-83
2021/05/05 11:16:59;;;;;;;4.15;1.90;;;;;;;13.19;55.55;99027.25;5032450;28;20256;-84
2021/05/05 11:22:14;;;;;;;7.35;2.25;;;;;;;13.43;53.82;99051.53;5063582;28;20036;-85
2021/05/05 11:24:40;;;;;;;3.78;1.60;;;;;;;12.70;51.35;99037.13;5033404;28;20050;-84
2021/05/05 11:27:09;;;;;;;2.15;1.67;;;;;;;12.12;51.52;99051.69;5059355;28;20037;-84
2021/05/05 11:29:41;;;;;;;3.67;1.50;;;;;;;11.93;53.67;99051.75;5029668;28;20044;-86
2021/05/05 11:32:23;;;;;;;2.15;1.48;;;;;;;11.88;52.73;99047.66;5045797;28;20493;-84
2021/05/05 11:34:53;;;;;;;1.50;1.40;;;;;;;11.68;52.66;99032.75;5072805;28;20051;-87
2021/05/05 11:37:24;;;;;;;3.03;1.50;;;;;;;11.40;51.31;99051.81;5016709;28;20068;-85
2021/05/05 11:39:55;;;;;;;1.75;1.50;;;;;;;11.17;50.75;99045.00;5032708;28;20048;-84
2021/05/05 11:42:27;;;;;;;1.30;1.20;;;;;;;11.42;52.30;99055.22;5021111;28;20489;-84
2021/05/05 11:45:10;;;;;;;1.50;1.20;;;;;;;11.92;53.74;99055.34;5023055;28;20528;-82
2021/05/05 11:47:40;;;;;;;2.20;1.20;;;;;;;12.59;53.29;99078.28;5050070;28;20045;-84
2021/05/05 11:50:14;;;;;;;2.33;1.25;;;;;;;12.82;49.84;99049.69;5050770;28;20037;-84
2021/05/05 11:52:48;;;;;;;1.75;1.65;;;;;;;13.15;50.93;99044.28;5025215;28;20142;-87
2021/05/05 11:55:16;;;;;;;;;;;;;;;13.09;49.78;99049.94;5011286;28;20041;-84
2021/05/05 11:57:44;;;;;;;3.70;1.42;;;;;;;12.84;46.76;99051.28;5053750;28;19963;-84
2021/05/05 12:00:23;;;;;;;2.15;1.40;;;;;;;13.00;47.23;99048.66;5050763;28;20052;-85
2021/05/05 12:02:54;;;;;;;2.55;1.30;;;;;;;13.31;48.23;99057.56;5019269;28;20059;-85
2021/05/05 12:05:27;;;;;;;4.53;1.20;;;;;;;13.55;46.91;99061.47;5028286;28;20043;-84